sensor_id;sensor_type;location;lat;lon;timestamp;P1;durP1;ratioP1;P2;durP2;ratioP2
68310;SDS011;55157;51.036;17.058;2023-04-24T00:00:10;37.55;;;21.58;;
68310;SDS011;55157;51.036;17.058;2023-04-24T00:02:36;37.90;;;24.00;;
68310;SDS011;55157;51.036;17.058;2023-04-24T00:05:03;32.90;;;21.23;;
68310;SDS011;55157;51.036;17.058;2023-04-24T00:07:28;26.73;;;19.75;;
68310;SDS011;55157;51.036;17.058;2023-04-24T00:09:53;31.80;;;21.73;;
68310;SDS011;55157;51.036;17.058;2023-04-24T00:12:18;30.40;;;20.05;;
68310;SDS011;55157;51.036;17.058;2023-04-24T00:14:44;35.50;;;20.30;;
68310;SDS011;55157;51.036;17.058;2023-04-24T00:17:09;25.83;;;18.73;;
68310;SDS011;55157;51.036;17.058;2023-04-24T00:19:34;27.30;;;19.65;;
68310;SDS011;55157;51.036;17.058;2023-04-24T00:22:01;30.00;;;20.52;;
68310;SDS011;55157;51.036;17.058;2023-04-24T00:24:26;31.40;;;20.27;;
68310;SDS011;55157;51.036;17.058;2023-04-24T00:26:52;28.73;;;19.73;;
68310;SDS011;55157;51.036;17.058;2023-04-24T00:29:17;30.80;;;20.55;;
68310;SDS011;55157;51.036;17.058;2023-04-24T00:31:42;32.40;;;19.92;;
68310;SDS011;55157;51.036;17.058;2023-04-24T00:34:07;32.80;;;20.60;;
68310;SDS011;55157;51.036;17.058;2023-04-24T00:36:33;30.08;;;20.40;;
68310;SDS011;55157;51.036;17.058;2023-04-24T00:38:59;31.88;;;21.55;;
68310;SDS011;55157;51.036;17.058;2023-04-24T00:41:25;29.88;;;21.40;;
68310;SDS011;55157;51.036;17.058;2023-04-24T00:43:50;32.97;;;21.85;;
68310;SDS011;55157;51.036;17.058;2023-04-24T00:46:15;33.97;;;20.58;;
68310;SDS011;55157;51.036;17.058;2023-04-24T00:48:41;30.98;;;20.25;;
68310;SDS011;55157;51.036;17.058;2023-04-24T00:51:06;27.83;;;20.02;;
68310;SDS011;55157;51.036;17.058;2023-04-24T00:53:31;32.90;;;20.35;;
68310;SDS011;55157;51.036;17.058;2023-04-24T00:55:58;30.38;;;19.92;;
68310;SDS011;55157;51.036;17.058;2023-04-24T00:58:24;27.48;;;18.13;;
68310;SDS011;55157;51.036;17.058;2023-04-24T01:00:50;29.85;;;20.17;;
68310;SDS011;55157;51.036;17.058;2023-04-24T01:03:16;25.92;;;17.83;;
68310;SDS011;55157;51.036;17.058;2023-04-24T01:05:42;26.00;;;18.20;;
68310;SDS011;55157;51.036;17.058;2023-04-24T01:08:07;29.23;;;19.30;;
68310;SDS011;55157;51.036;17.058;2023-04-24T01:10:33;28.63;;;19.63;;
68310;SDS011;55157;51.036;17.058;2023-04-24T01:12:59;26.48;;;18.50;;
68310;SDS011;55157;51.036;17.058;2023-04-24T01:15:25;31.00;;;18.70;;
68310;SDS011;55157;51.036;17.058;2023-04-24T01:17:50;24.48;;;17.75;;
68310;SDS011;55157;51.036;17.058;2023-04-24T01:20:15;28.90;;;18.85;;
68310;SDS011;55157;51.036;17.058;2023-04-24T01:22:42;28.55;;;16.63;;
68310;SDS011;55157;51.036;17.058;2023-04-24T01:25:08;23.05;;;18.10;;
68310;SDS011;55157;51.036;17.058;2023-04-24T01:27:33;29.40;;;18.25;;
68310;SDS011;55157;51.036;17.058;2023-04-24T01:29:58;26.35;;;17.42;;
68310;SDS011;55157;51.036;17.058;2023-04-24T01:32:24;23.52;;;16.73;;
68310;SDS011;55157;51.036;17.058;2023-04-24T01:34:49;25.92;;;18.48;;
68310;SDS011;55157;51.036;17.058;2023-04-24T01:37:15;25.73;;;17.38;;
68310;SDS011;55157;51.036;17.058;2023-04-24T01:39:42;25.67;;;18.23;;
68310;SDS011;55157;51.036;17.058;2023-04-24T01:42:07;23.20;;;16.65;;
68310;SDS011;55157;51.036;17.058;2023-04-24T01:44:33;29.08;;;17.65;;
68310;SDS011;55157;51.036;17.058;2023-04-24T01:46:58;27.63;;;17.35;;
68310;SDS011;55157;51.036;17.058;2023-04-24T01:49:25;23.45;;;16.48;;
68310;SDS011;55157;51.036;17.058;2023-04-24T01:51:50;29.20;;;17.05;;
68310;SDS011;55157;51.036;17.058;2023-04-24T01:54:15;21.63;;;16.85;;
68310;SDS011;55157;51.036;17.058;2023-04-24T01:56:42;22.80;;;16.08;;
68310;SDS011;55157;51.036;17.058;2023-04-24T01:59:07;28.63;;;17.27;;
68310;SDS011;55157;51.036;17.058;2023-04-24T02:01:34;22.95;;;16.63;;
68310;SDS011;55157;51.036;17.058;2023-04-24T02:03:59;21.23;;;15.57;;
68310;SDS011;55157;51.036;17.058;2023-04-24T02:06:25;27.83;;;15.60;;
68310;SDS011;55157;51.036;17.058;2023-04-24T02:08:50;23.58;;;15.93;;
68310;SDS011;55157;51.036;17.058;2023-04-24T02:11:15;21.48;;;16.02;;
68310;SDS011;55157;51.036;17.058;2023-04-24T02:13:42;20.73;;;16.77;;
68310;SDS011;55157;51.036;17.058;2023-04-24T02:16:07;21.92;;;16.25;;
68310;SDS011;55157;51.036;17.058;2023-04-24T02:18:32;27.95;;;17.73;;
68310;SDS011;55157;51.036;17.058;2023-04-24T02:20:57;25.60;;;16.42;;
68310;SDS011;55157;51.036;17.058;2023-04-24T02:23:23;20.88;;;16.00;;
68310;SDS011;55157;51.036;17.058;2023-04-24T02:25:48;24.70;;;15.95;;
68310;SDS011;55157;51.036;17.058;2023-04-24T02:28:13;22.55;;;16.30;;
68310;SDS011;55157;51.036;17.058;2023-04-24T02:30:40;22.10;;;15.68;;
68310;SDS011;55157;51.036;17.058;2023-04-24T02:33:05;18.83;;;14.30;;
68310;SDS011;55157;51.036;17.058;2023-04-24T02:35:30;20.00;;;15.25;;
68310;SDS011;55157;51.036;17.058;2023-04-24T02:37:56;20.25;;;14.57;;
68310;SDS011;55157;51.036;17.058;2023-04-24T02:40:21;19.65;;;13.57;;
68310;SDS011;55157;51.036;17.058;2023-04-24T02:42:46;22.08;;;15.50;;
68310;SDS011;55157;51.036;17.058;2023-04-24T02:45:11;22.60;;;15.05;;
68310;SDS011;55157;51.036;17.058;2023-04-24T02:47:38;20.83;;;15.18;;
68310;SDS011;55157;51.036;17.058;2023-04-24T02:50:04;22.45;;;15.52;;
68310;SDS011;55157;51.036;17.058;2023-04-24T02:52:29;20.20;;;14.82;;
68310;SDS011;55157;51.036;17.058;2023-04-24T02:54:54;25.17;;;15.45;;
68310;SDS011;55157;51.036;17.058;2023-04-24T02:57:20;19.83;;;15.48;;
68310;SDS011;55157;51.036;17.058;2023-04-24T02:59:45;22.38;;;16.88;;
68310;SDS011;55157;51.036;17.058;2023-04-24T03:02:10;21.58;;;17.45;;
68310;SDS011;55157;51.036;17.058;2023-04-24T03:04:37;24.92;;;16.25;;
68310;SDS011;55157;51.036;17.058;2023-04-24T03:07:02;22.40;;;15.10;;
68310;SDS011;55157;51.036;17.058;2023-04-24T03:09:27;21.48;;;14.82;;
68310;SDS011;55157;51.036;17.058;2023-04-24T03:11:53;31.35;;;16.45;;
68310;SDS011;55157;51.036;17.058;2023-04-24T03:14:18;23.52;;;16.02;;
68310;SDS011;55157;51.036;17.058;2023-04-24T03:16:43;19.95;;;14.57;;
68310;SDS011;55157;51.036;17.058;2023-04-24T03:19:08;23.65;;;17.10;;
68310;SDS011;55157;51.036;17.058;2023-04-24T03:21:35;24.35;;;17.15;;
68310;SDS011;55157;51.036;17.058;2023-04-24T03:24:00;29.02;;;17.38;;
68310;SDS011;55157;51.036;17.058;2023-04-24T03:26:26;18.08;;;14.85;;
68310;SDS011;55157;51.036;17.058;2023-04-24T03:28:51;22.65;;;16.70;;
68310;SDS011;55157;51.036;17.058;2023-04-24T03:31:16;21.58;;;16.20;;
68310;SDS011;55157;51.036;17.058;2023-04-24T03:33:41;29.67;;;16.45;;
68310;SDS011;55157;51.036;17.058;2023-04-24T03:36:07;23.98;;;15.25;;
68310;SDS011;55157;51.036;17.058;2023-04-24T03:38:33;22.25;;;16.05;;
68310;SDS011;55157;51.036;17.058;2023-04-24T03:40:59;24.80;;;15.75;;
68310;SDS011;55157;51.036;17.058;2023-04-24T03:43:24;25.05;;;16.85;;
68310;SDS011;55157;51.036;17.058;2023-04-24T03:45:49;19.20;;;15.25;;
68310;SDS011;55157;51.036;17.058;2023-04-24T03:48:15;23.05;;;15.48;;
68310;SDS011;55157;51.036;17.058;2023-04-24T03:50:40;19.00;;;14.23;;
68310;SDS011;55157;51.036;17.058;2023-04-24T03:53:05;22.52;;;15.35;;
68310;SDS011;55157;51.036;17.058;2023-04-24T03:55:32;20.30;;;14.13;;
68310;SDS011;55157;51.036;17.058;2023-04-24T03:57:57;22.20;;;14.18;;
68310;SDS011;55157;51.036;17.058;2023-04-24T04:00:22;23.30;;;15.43;;
68310;SDS011;55157;51.036;17.058;2023-04-24T04:02:47;21.17;;;14.93;;
68310;SDS011;55157;51.036;17.058;2023-04-24T04:05:13;20.30;;;16.88;;
68310;SDS011;55157;51.036;17.058;2023-04-24T04:07:38;22.85;;;15.43;;
68310;SDS011;55157;51.036;17.058;2023-04-24T04:10:03;23.77;;;16.10;;
68310;SDS011;55157;51.036;17.058;2023-04-24T04:12:30;22.50;;;15.68;;
68310;SDS011;55157;51.036;17.058;2023-04-24T04:14:55;29.27;;;17.40;;
68310;SDS011;55157;51.036;17.058;2023-04-24T04:17:21;24.80;;;15.32;;
68310;SDS011;55157;51.036;17.058;2023-04-24T04:19:46;20.15;;;15.20;;
68310;SDS011;55157;51.036;17.058;2023-04-24T04:22:11;17.20;;;14.32;;
68310;SDS011;55157;51.036;17.058;2023-04-24T04:24:36;17.85;;;14.15;;
68310;SDS011;55157;51.036;17.058;2023-04-24T04:27:02;33.97;;;15.05;;
68310;SDS011;55157;51.036;17.058;2023-04-24T04:29:28;25.17;;;15.80;;
68310;SDS011;55157;51.036;17.058;2023-04-24T04:31:54;21.63;;;13.65;;
68310;SDS011;55157;51.036;17.058;2023-04-24T04:34:19;19.35;;;15.27;;
68310;SDS011;55157;51.036;17.058;2023-04-24T04:36:44;28.92;;;15.65;;
68310;SDS011;55157;51.036;17.058;2023-04-24T04:39:09;20.27;;;14.95;;
68310;SDS011;55157;51.036;17.058;2023-04-24T04:41:35;22.58;;;15.02;;
68310;SDS011;55157;51.036;17.058;2023-04-24T04:44:00;24.05;;;14.18;;
68310;SDS011;55157;51.036;17.058;2023-04-24T04:46:27;25.75;;;14.13;;
68310;SDS011;55157;51.036;17.058;2023-04-24T04:48:52;20.15;;;13.80;;
68310;SDS011;55157;51.036;17.058;2023-04-24T04:51:17;23.20;;;13.18;;
68310;SDS011;55157;51.036;17.058;2023-04-24T04:53:42;22.80;;;12.88;;
68310;SDS011;55157;51.036;17.058;2023-04-24T04:56:08;16.13;;;12.68;;
68310;SDS011;55157;51.036;17.058;2023-04-24T04:58:33;17.45;;;11.98;;
68310;SDS011;55157;51.036;17.058;2023-04-24T05:00:58;18.23;;;11.95;;
68310;SDS011;55157;51.036;17.058;2023-04-24T05:03:25;20.75;;;11.60;;
68310;SDS011;55157;51.036;17.058;2023-04-24T05:05:50;17.95;;;11.00;;
68310;SDS011;55157;51.036;17.058;2023-04-24T05:08:16;20.00;;;12.55;;
68310;SDS011;55157;51.036;17.058;2023-04-24T05:10:41;17.58;;;10.82;;
68310;SDS011;55157;51.036;17.058;2023-04-24T05:13:06;18.60;;;10.65;;
68310;SDS011;55157;51.036;17.058;2023-04-24T05:15:31;21.42;;;10.75;;
68310;SDS011;55157;51.036;17.058;2023-04-24T05:17:57;13.65;;;10.88;;
68310;SDS011;55157;51.036;17.058;2023-04-24T05:20:23;13.55;;;9.90;;
68310;SDS011;55157;51.036;17.058;2023-04-24T05:22:49;15.82;;;9.02;;
68310;SDS011;55157;51.036;17.058;2023-04-24T05:25:14;14.25;;;9.48;;
68310;SDS011;55157;51.036;17.058;2023-04-24T05:27:39;15.35;;;9.02;;
68310;SDS011;55157;51.036;17.058;2023-04-24T05:30:05;15.52;;;9.05;;
68310;SDS011;55157;51.036;17.058;2023-04-24T05:32:30;17.67;;;8.23;;
68310;SDS011;55157;51.036;17.058;2023-04-24T05:34:56;18.10;;;8.18;;
68310;SDS011;55157;51.036;17.058;2023-04-24T05:37:22;18.50;;;7.55;;
68310;SDS011;55157;51.036;17.058;2023-04-24T05:39:48;11.45;;;6.97;;
68310;SDS011;55157;51.036;17.058;2023-04-24T05:42:13;14.90;;;7.40;;
68310;SDS011;55157;51.036;17.058;2023-04-24T05:44:38;13.85;;;6.82;;
68310;SDS011;55157;51.036;17.058;2023-04-24T05:47:03;14.48;;;7.32;;
68310;SDS011;55157;51.036;17.058;2023-04-24T05:49:29;12.55;;;6.28;;
68310;SDS011;55157;51.036;17.058;2023-04-24T05:51:54;19.08;;;7.40;;
68310;SDS011;55157;51.036;17.058;2023-04-24T05:54:21;14.80;;;6.65;;
68310;SDS011;55157;51.036;17.058;2023-04-24T05:56:46;14.85;;;7.50;;
68310;SDS011;55157;51.036;17.058;2023-04-24T05:59:11;9.75;;;6.32;;
68310;SDS011;55157;51.036;17.058;2023-04-24T06:01:36;20.52;;;6.10;;
68310;SDS011;55157;51.036;17.058;2023-04-24T06:04:02;14.02;;;6.68;;
68310;SDS011;55157;51.036;17.058;2023-04-24T06:06:27;9.82;;;5.30;;
68310;SDS011;55157;51.036;17.058;2023-04-24T06:08:53;20.45;;;7.95;;
68310;SDS011;55157;51.036;17.058;2023-04-24T06:11:19;20.05;;;6.72;;
68310;SDS011;55157;51.036;17.058;2023-04-24T06:13:45;15.40;;;6.63;;
68310;SDS011;55157;51.036;17.058;2023-04-24T06:16:10;12.43;;;6.65;;
68310;SDS011;55157;51.036;17.058;2023-04-24T06:18:35;13.52;;;7.00;;
68310;SDS011;55157;51.036;17.058;2023-04-24T06:21:00;10.68;;;6.38;;
68310;SDS011;55157;51.036;17.058;2023-04-24T06:23:25;13.90;;;6.63;;
68310;SDS011;55157;51.036;17.058;2023-04-24T06:25:51;12.93;;;6.82;;
68310;SDS011;55157;51.036;17.058;2023-04-24T06:28:18;16.17;;;6.35;;
68310;SDS011;55157;51.036;17.058;2023-04-24T06:30:43;9.57;;;5.45;;
68310;SDS011;55157;51.036;17.058;2023-04-24T06:33:08;14.02;;;5.47;;
68310;SDS011;55157;51.036;17.058;2023-04-24T06:35:33;14.48;;;5.95;;
68310;SDS011;55157;51.036;17.058;2023-04-24T06:37:59;20.33;;;6.63;;
68310;SDS011;55157;51.036;17.058;2023-04-24T06:40:24;16.45;;;6.05;;
68310;SDS011;55157;51.036;17.058;2023-04-24T06:42:49;10.48;;;6.15;;
68310;SDS011;55157;51.036;17.058;2023-04-24T06:45:16;17.85;;;6.50;;
68310;SDS011;55157;51.036;17.058;2023-04-24T06:47:41;13.65;;;5.95;;
68310;SDS011;55157;51.036;17.058;2023-04-24T06:50:07;17.85;;;6.93;;
68310;SDS011;55157;51.036;17.058;2023-04-24T06:52:32;21.45;;;8.02;;
68310;SDS011;55157;51.036;17.058;2023-04-24T06:54:59;23.83;;;13.05;;
68310;SDS011;55157;51.036;17.058;2023-04-24T06:57:25;13.93;;;6.57;;
68310;SDS011;55157;51.036;17.058;2023-04-24T06:59:50;19.02;;;9.38;;
68310;SDS011;55157;51.036;17.058;2023-04-24T07:02:16;23.40;;;6.85;;
68310;SDS011;55157;51.036;17.058;2023-04-24T07:04:42;17.45;;;7.72;;
68310;SDS011;55157;51.036;17.058;2023-04-24T07:07:07;46.92;;;28.80;;
68310;SDS011;55157;51.036;17.058;2023-04-24T07:09:32;28.33;;;18.10;;
68310;SDS011;55157;51.036;17.058;2023-04-24T07:11:57;29.75;;;15.02;;
68310;SDS011;55157;51.036;17.058;2023-04-24T07:14:23;24.05;;;11.55;;
68310;SDS011;55157;51.036;17.058;2023-04-24T07:16:48;16.08;;;6.93;;
68310;SDS011;55157;51.036;17.058;2023-04-24T07:19:15;35.65;;;11.95;;
68310;SDS011;55157;51.036;17.058;2023-04-24T07:21:40;37.78;;;15.07;;
68310;SDS011;55157;51.036;17.058;2023-04-24T07:24:05;32.58;;;12.77;;
68310;SDS011;55157;51.036;17.058;2023-04-24T07:26:30;48.22;;;18.15;;
68310;SDS011;55157;51.036;17.058;2023-04-24T07:28:56;28.35;;;12.98;;
68310;SDS011;55157;51.036;17.058;2023-04-24T07:31:21;31.85;;;14.23;;
68310;SDS011;55157;51.036;17.058;2023-04-24T07:33:47;28.58;;;12.75;;
68310;SDS011;55157;51.036;17.058;2023-04-24T07:36:14;14.27;;;7.68;;
68310;SDS011;55157;51.036;17.058;2023-04-24T07:38:39;32.53;;;11.85;;
68310;SDS011;55157;51.036;17.058;2023-04-24T07:41:04;26.92;;;10.45;;
68310;SDS011;55157;51.036;17.058;2023-04-24T07:43:30;21.20;;;9.90;;
68310;SDS011;55157;51.036;17.058;2023-04-24T07:45:55;30.65;;;11.98;;
68310;SDS011;55157;51.036;17.058;2023-04-24T07:48:20;8.43;;;4.85;;
68310;SDS011;55157;51.036;17.058;2023-04-24T07:50:45;12.77;;;6.00;;
68310;SDS011;55157;51.036;17.058;2023-04-24T07:53:12;13.13;;;4.55;;
68310;SDS011;55157;51.036;17.058;2023-04-24T07:55:37;16.08;;;6.50;;
68310;SDS011;55157;51.036;17.058;2023-04-24T07:58:03;14.60;;;5.75;;
68310;SDS011;55157;51.036;17.058;2023-04-24T08:00:28;12.57;;;6.05;;
68310;SDS011;55157;51.036;17.058;2023-04-24T08:02:53;15.00;;;5.80;;
68310;SDS011;55157;51.036;17.058;2023-04-24T08:05:18;16.55;;;6.38;;
68310;SDS011;55157;51.036;17.058;2023-04-24T08:07:44;31.00;;;13.05;;
68310;SDS011;55157;51.036;17.058;2023-04-24T08:10:11;29.63;;;11.82;;
68310;SDS011;55157;51.036;17.058;2023-04-24T08:12:36;61.35;;;23.48;;
68310;SDS011;55157;51.036;17.058;2023-04-24T08:15:02;35.63;;;14.32;;
68310;SDS011;55157;51.036;17.058;2023-04-24T08:17:27;30.25;;;11.50;;
68310;SDS011;55157;51.036;17.058;2023-04-24T08:19:52;44.50;;;17.27;;
68310;SDS011;55157;51.036;17.058;2023-04-24T08:22:18;10.30;;;6.15;;
68310;SDS011;55157;51.036;17.058;2023-04-24T08:24:43;8.73;;;5.78;;
68310;SDS011;55157;51.036;17.058;2023-04-24T08:27:10;8.93;;;6.13;;
68310;SDS011;55157;51.036;17.058;2023-04-24T08:29:35;9.95;;;5.80;;
68310;SDS011;55157;51.036;17.058;2023-04-24T08:32:00;8.93;;;5.93;;
68310;SDS011;55157;51.036;17.058;2023-04-24T08:34:26;9.65;;;6.20;;
68310;SDS011;55157;51.036;17.058;2023-04-24T08:36:51;17.15;;;8.23;;
68310;SDS011;55157;51.036;17.058;2023-04-24T08:39:16;48.25;;;19.85;;
68310;SDS011;55157;51.036;17.058;2023-04-24T08:41:42;14.13;;;7.90;;
68310;SDS011;55157;51.036;17.058;2023-04-24T08:44:09;33.95;;;14.10;;
68310;SDS011;55157;51.036;17.058;2023-04-24T08:46:34;48.10;;;20.80;;
68310;SDS011;55157;51.036;17.058;2023-04-24T08:49:00;18.10;;;9.73;;
68310;SDS011;55157;51.036;17.058;2023-04-24T08:51:26;22.10;;;12.07;;
68310;SDS011;55157;51.036;17.058;2023-04-24T08:53:51;11.88;;;7.47;;
68310;SDS011;55157;51.036;17.058;2023-04-24T08:56:18;52.58;;;21.83;;
68310;SDS011;55157;51.036;17.058;2023-04-24T08:58:44;17.17;;;10.35;;
68310;SDS011;55157;51.036;17.058;2023-04-24T09:01:10;33.08;;;15.60;;
68310;SDS011;55157;51.036;17.058;2023-04-24T09:03:36;29.23;;;14.43;;
68310;SDS011;55157;51.036;17.058;2023-04-24T09:06:01;14.07;;;8.43;;
68310;SDS011;55157;51.036;17.058;2023-04-24T09:08:27;57.03;;;24.25;;
68310;SDS011;55157;51.036;17.058;2023-04-24T09:10:53;12.15;;;7.47;;
68310;SDS011;55157;51.036;17.058;2023-04-24T09:13:18;41.58;;;16.42;;
68310;SDS011;55157;51.036;17.058;2023-04-24T09:15:44;14.90;;;7.88;;
68310;SDS011;55157;51.036;17.058;2023-04-24T09:18:11;9.68;;;6.25;;
68310;SDS011;55157;51.036;17.058;2023-04-24T09:20:51;14.27;;;7.20;;
68310;SDS011;55157;51.036;17.058;2023-04-24T09:23:21;11.38;;;7.78;;
68310;SDS011;55157;51.036;17.058;2023-04-24T09:25:48;20.33;;;13.88;;
68310;SDS011;55157;51.036;17.058;2023-04-24T09:28:18;22.05;;;11.60;;
68310;SDS011;55157;51.036;17.058;2023-04-24T09:30:44;26.58;;;14.23;;
68310;SDS011;55157;51.036;17.058;2023-04-24T09:33:12;20.55;;;11.45;;
68310;SDS011;55157;51.036;17.058;2023-04-24T09:35:40;12.52;;;7.85;;
68310;SDS011;55157;51.036;17.058;2023-04-24T09:38:05;15.45;;;8.23;;
68310;SDS011;55157;51.036;17.058;2023-04-24T09:40:30;24.50;;;14.25;;
68310;SDS011;55157;51.036;17.058;2023-04-24T09:42:59;29.10;;;14.80;;
68310;SDS011;55157;51.036;17.058;2023-04-24T09:45:26;16.10;;;9.52;;
68310;SDS011;55157;51.036;17.058;2023-04-24T09:47:52;14.07;;;8.32;;
68310;SDS011;55157;51.036;17.058;2023-04-24T09:50:19;8.00;;;6.93;;
68310;SDS011;55157;51.036;17.058;2023-04-24T09:52:45;10.38;;;6.72;;
68310;SDS011;55157;51.036;17.058;2023-04-24T09:55:11;9.00;;;6.63;;
68310;SDS011;55157;51.036;17.058;2023-04-24T09:57:40;10.40;;;6.72;;
68310;SDS011;55157;51.036;17.058;2023-04-24T10:00:11;19.67;;;9.73;;
68310;SDS011;55157;51.036;17.058;2023-04-24T10:02:37;9.00;;;6.13;;
68310;SDS011;55157;51.036;17.058;2023-04-24T10:05:02;8.48;;;6.30;;
68310;SDS011;55157;51.036;17.058;2023-04-24T10:07:29;13.23;;;6.45;;
68310;SDS011;55157;51.036;17.058;2023-04-24T10:09:57;10.27;;;7.70;;
68310;SDS011;55157;51.036;17.058;2023-04-24T10:12:24;16.08;;;8.43;;
68310;SDS011;55157;51.036;17.058;2023-04-24T10:14:50;14.88;;;8.98;;
68310;SDS011;55157;51.036;17.058;2023-04-24T10:17:15;10.00;;;6.15;;
68310;SDS011;55157;51.036;17.058;2023-04-24T10:19:40;12.48;;;7.68;;
68310;SDS011;55157;51.036;17.058;2023-04-24T10:22:06;13.18;;;6.25;;
68310;SDS011;55157;51.036;17.058;2023-04-24T10:24:33;7.90;;;5.22;;
68310;SDS011;55157;51.036;17.058;2023-04-24T10:26:58;9.38;;;6.28;;
68310;SDS011;55157;51.036;17.058;2023-04-24T10:29:24;7.20;;;5.97;;
68310;SDS011;55157;51.036;17.058;2023-04-24T10:31:49;14.20;;;7.50;;
68310;SDS011;55157;51.036;17.058;2023-04-24T10:34:15;11.63;;;7.53;;
68310;SDS011;55157;51.036;17.058;2023-04-24T10:36:42;21.20;;;9.00;;
68310;SDS011;55157;51.036;17.058;2023-04-24T10:39:08;14.25;;;7.57;;
68310;SDS011;55157;51.036;17.058;2023-04-24T10:41:36;8.30;;;5.70;;
68310;SDS011;55157;51.036;17.058;2023-04-24T10:44:04;18.52;;;9.77;;
68310;SDS011;55157;51.036;17.058;2023-04-24T10:46:30;16.45;;;8.57;;
68310;SDS011;55157;51.036;17.058;2023-04-24T10:48:55;14.45;;;9.23;;
68310;SDS011;55157;51.036;17.058;2023-04-24T10:51:21;23.35;;;11.10;;
68310;SDS011;55157;51.036;17.058;2023-04-24T10:53:47;23.40;;;9.82;;
68310;SDS011;55157;51.036;17.058;2023-04-24T10:56:15;15.95;;;8.65;;
68310;SDS011;55157;51.036;17.058;2023-04-24T10:58:43;18.85;;;8.45;;
68310;SDS011;55157;51.036;17.058;2023-04-24T11:01:08;9.63;;;5.82;;
68310;SDS011;55157;51.036;17.058;2023-04-24T11:03:34;8.27;;;6.03;;
68310;SDS011;55157;51.036;17.058;2023-04-24T11:06:01;13.13;;;7.38;;
68310;SDS011;55157;51.036;17.058;2023-04-24T11:08:27;13.38;;;6.57;;
68310;SDS011;55157;51.036;17.058;2023-04-24T11:10:56;19.23;;;9.20;;
68310;SDS011;55157;51.036;17.058;2023-04-24T11:13:22;14.90;;;6.25;;
68310;SDS011;55157;51.036;17.058;2023-04-24T11:15:54;13.20;;;7.18;;
68310;SDS011;55157;51.036;17.058;2023-04-24T11:18:37;10.95;;;6.70;;
68310;SDS011;55157;51.036;17.058;2023-04-24T11:21:09;6.45;;;5.32;;
68310;SDS011;55157;51.036;17.058;2023-04-24T11:23:35;11.05;;;6.30;;
68310;SDS011;55157;51.036;17.058;2023-04-24T11:26:09;9.35;;;5.80;;
68310;SDS011;55157;51.036;17.058;2023-04-24T11:28:34;14.20;;;6.53;;
68310;SDS011;55157;51.036;17.058;2023-04-24T11:31:02;17.63;;;7.15;;
68310;SDS011;55157;51.036;17.058;2023-04-24T11:33:47;11.70;;;6.50;;
68310;SDS011;55157;51.036;17.058;2023-04-24T11:36:13;9.32;;;5.55;;
68310;SDS011;55157;51.036;17.058;2023-04-24T11:38:38;11.18;;;5.20;;
68310;SDS011;55157;51.036;17.058;2023-04-24T11:41:03;6.97;;;5.05;;
68310;SDS011;55157;51.036;17.058;2023-04-24T11:43:29;7.82;;;5.28;;
68310;SDS011;55157;51.036;17.058;2023-04-24T11:45:55;9.48;;;5.47;;
68310;SDS011;55157;51.036;17.058;2023-04-24T11:48:25;9.40;;;5.05;;
68310;SDS011;55157;51.036;17.058;2023-04-24T11:50:51;13.10;;;8.30;;
68310;SDS011;55157;51.036;17.058;2023-04-24T11:53:18;12.98;;;6.28;;
68310;SDS011;55157;51.036;17.058;2023-04-24T11:55:43;38.67;;;14.77;;
68310;SDS011;55157;51.036;17.058;2023-04-24T11:58:08;24.88;;;10.20;;
68310;SDS011;55157;51.036;17.058;2023-04-24T12:00:33;25.98;;;12.25;;
68310;SDS011;55157;51.036;17.058;2023-04-24T12:03:05;17.35;;;9.55;;
68310;SDS011;55157;51.036;17.058;2023-04-24T12:05:32;23.35;;;8.18;;
68310;SDS011;55157;51.036;17.058;2023-04-24T12:07:57;28.67;;;12.65;;
68310;SDS011;55157;51.036;17.058;2023-04-24T12:10:23;10.27;;;6.70;;
68310;SDS011;55157;51.036;17.058;2023-04-24T12:12:49;8.90;;;6.03;;
68310;SDS011;55157;51.036;17.058;2023-04-24T12:15:15;12.63;;;7.03;;
68310;SDS011;55157;51.036;17.058;2023-04-24T12:17:41;9.68;;;6.10;;
68310;SDS011;55157;51.036;17.058;2023-04-24T12:20:07;10.68;;;6.72;;
68310;SDS011;55157;51.036;17.058;2023-04-24T12:22:48;24.35;;;10.30;;
68310;SDS011;55157;51.036;17.058;2023-04-24T12:25:14;29.90;;;13.50;;
68310;SDS011;55157;51.036;17.058;2023-04-24T12:27:39;12.05;;;7.78;;
68310;SDS011;55157;51.036;17.058;2023-04-24T12:30:05;13.38;;;6.38;;
68310;SDS011;55157;51.036;17.058;2023-04-24T12:32:30;9.68;;;6.00;;
68310;SDS011;55157;51.036;17.058;2023-04-24T12:34:56;12.80;;;6.47;;
68310;SDS011;55157;51.036;17.058;2023-04-24T12:37:22;7.82;;;6.68;;
68310;SDS011;55157;51.036;17.058;2023-04-24T12:40:02;7.85;;;6.30;;
68310;SDS011;55157;51.036;17.058;2023-04-24T12:42:28;11.05;;;6.22;;
68310;SDS011;55157;51.036;17.058;2023-04-24T12:44:56;12.77;;;6.28;;
68310;SDS011;55157;51.036;17.058;2023-04-24T12:47:21;12.00;;;6.30;;
68310;SDS011;55157;51.036;17.058;2023-04-24T12:49:46;10.20;;;6.78;;
68310;SDS011;55157;51.036;17.058;2023-04-24T12:52:12;8.98;;;5.95;;
68310;SDS011;55157;51.036;17.058;2023-04-24T12:54:37;10.82;;;5.90;;
68310;SDS011;55157;51.036;17.058;2023-04-24T12:57:04;15.52;;;5.57;;
68310;SDS011;55157;51.036;17.058;2023-04-24T12:59:29;10.90;;;8.18;;
68310;SDS011;55157;51.036;17.058;2023-04-24T13:01:54;15.68;;;7.85;;
68310;SDS011;55157;51.036;17.058;2023-04-24T13:04:19;10.52;;;7.13;;
68310;SDS011;55157;51.036;17.058;2023-04-24T13:06:45;11.77;;;6.63;;
68310;SDS011;55157;51.036;17.058;2023-04-24T13:09:10;15.20;;;8.48;;
68310;SDS011;55157;51.036;17.058;2023-04-24T13:11:35;14.35;;;6.85;;
68310;SDS011;55157;51.036;17.058;2023-04-24T13:14:02;9.80;;;5.90;;
68310;SDS011;55157;51.036;17.058;2023-04-24T13:16:27;12.95;;;6.30;;
68310;SDS011;55157;51.036;17.058;2023-04-24T13:18:52;8.77;;;6.15;;
68310;SDS011;55157;51.036;17.058;2023-04-24T13:21:17;6.95;;;5.50;;
68310;SDS011;55157;51.036;17.058;2023-04-24T13:23:43;7.18;;;3.20;;
68310;SDS011;55157;51.036;17.058;2023-04-24T13:26:08;4.22;;;3.00;;
68310;SDS011;55157;51.036;17.058;2023-04-24T13:28:33;9.23;;;2.15;;
68310;SDS011;55157;51.036;17.058;2023-04-24T13:31:00;5.70;;;2.10;;
68310;SDS011;55157;51.036;17.058;2023-04-24T13:33:25;2.67;;;1.67;;
68310;SDS011;55157;51.036;17.058;2023-04-24T13:35:51;12.50;;;1.98;;
68310;SDS011;55157;51.036;17.058;2023-04-24T13:38:16;4.30;;;1.67;;
68310;SDS011;55157;51.036;17.058;2023-04-24T13:40:41;4.78;;;1.85;;
68310;SDS011;55157;51.036;17.058;2023-04-24T13:43:06;4.50;;;1.42;;
68310;SDS011;55157;51.036;17.058;2023-04-24T13:45:32;6.85;;;1.70;;
68310;SDS011;55157;51.036;17.058;2023-04-24T13:47:58;6.28;;;1.80;;
68310;SDS011;55157;51.036;17.058;2023-04-24T13:50:24;2.60;;;1.45;;
68310;SDS011;55157;51.036;17.058;2023-04-24T13:52:49;7.72;;;1.70;;
68310;SDS011;55157;51.036;17.058;2023-04-24T13:55:14;6.10;;;1.70;;
68310;SDS011;55157;51.036;17.058;2023-04-24T13:57:39;4.72;;;1.25;;
68310;SDS011;55157;51.036;17.058;2023-04-24T14:00:05;1.90;;;1.10;;
68310;SDS011;55157;51.036;17.058;2023-04-24T14:02:31;3.97;;;1.38;;
68310;SDS011;55157;51.036;17.058;2023-04-24T14:04:57;11.30;;;1.30;;
68310;SDS011;55157;51.036;17.058;2023-04-24T14:07:22;9.27;;;1.70;;